createdAt,value
2018-09-10T00:01:18.390Z,2.83
2018-09-10T00:03:46.624Z,2.50
2018-09-10T00:06:14.863Z,2.17
2018-09-10T00:08:45.315Z,1.90
2018-09-10T00:11:13.519Z,1.87
2018-09-10T00:13:41.874Z,1.80
2018-09-10T00:16:10.260Z,1.83
2018-09-10T00:18:38.486Z,1.90
2018-09-10T00:21:06.718Z,1.80
2018-09-10T00:23:34.899Z,1.80
2018-09-10T00:26:03.136Z,1.97
2018-09-10T00:28:31.293Z,2.07
2018-09-10T00:30:59.941Z,2.43
2018-09-10T00:33:28.522Z,2.10
2018-09-10T00:35:56.763Z,2.10
2018-09-10T00:38:24.969Z,2.00
2018-09-10T00:40:53.311Z,2.00
2018-09-10T00:43:21.720Z,2.00
2018-09-10T00:45:49.915Z,2.40
2018-09-10T00:48:18.082Z,2.40
2018-09-10T00:50:46.226Z,2.30
2018-09-10T00:53:14.457Z,2.30
2018-09-10T00:55:42.708Z,2.23
2018-09-10T00:58:10.964Z,2.43
2018-09-10T01:00:39.152Z,2.50
2018-09-10T01:03:07.342Z,2.47
2018-09-10T01:05:35.551Z,2.30
2018-09-10T01:08:03.732Z,2.60
2018-09-10T01:10:31.968Z,2.80
2018-09-10T01:13:00.190Z,2.17
2018-09-10T01:15:28.451Z,1.90
2018-09-10T01:17:56.621Z,2.10
2018-09-10T01:20:24.824Z,1.80
2018-09-10T01:22:53.044Z,2.00
2018-09-10T01:25:21.269Z,1.60
2018-09-10T01:27:49.488Z,1.70
2018-09-10T01:30:17.735Z,1.70
2018-09-10T01:32:45.948Z,1.80
2018-09-10T01:35:14.125Z,1.77
2018-09-10T01:37:42.311Z,1.63
2018-09-10T01:40:10.515Z,1.80
2018-09-10T01:42:38.710Z,2.20
2018-09-10T01:45:06.868Z,2.20
2018-09-10T01:47:35.113Z,1.80
2018-09-10T01:50:03.329Z,2.50
2018-09-10T01:52:31.549Z,2.00
2018-09-10T01:54:59.827Z,2.00
2018-09-10T01:57:28.026Z,2.03
2018-09-10T01:59:56.261Z,2.10
2018-09-10T02:02:24.415Z,1.97
2018-09-10T02:04:53.693Z,2.30
2018-09-10T02:07:21.975Z,2.20
2018-09-10T02:09:50.197Z,2.10
2018-09-10T02:12:25.147Z,2.27
2018-09-10T02:14:54.350Z,2.03
2018-09-10T02:17:22.742Z,2.10
2018-09-10T02:19:50.980Z,1.97
2018-09-10T02:22:19.261Z,2.40
2018-09-10T02:24:47.428Z,2.07
2018-09-10T02:27:15.679Z,2.03
2018-09-10T02:29:43.862Z,1.90
2018-09-10T02:32:12.064Z,1.80
2018-09-10T02:34:40.268Z,2.20
2018-09-10T02:37:08.553Z,2.10
2018-09-10T02:39:36.753Z,1.93
2018-09-10T02:42:04.980Z,2.00
2018-09-10T02:44:33.203Z,2.47
2018-09-10T02:47:01.354Z,1.77
2018-09-10T02:49:29.532Z,2.40
2018-09-10T02:51:57.679Z,2.00
2018-09-10T02:54:25.899Z,2.10
2018-09-10T02:56:54.065Z,2.40
2018-09-10T02:59:22.243Z,1.83
2018-09-10T03:01:50.417Z,1.73
2018-09-10T03:04:18.614Z,1.70
2018-09-10T03:06:46.817Z,2.10
2018-09-10T03:09:14.983Z,2.00
2018-09-10T03:11:43.237Z,1.90
2018-09-10T03:14:11.438Z,2.10
2018-09-10T03:16:39.649Z,2.33
2018-09-10T03:19:07.864Z,2.30
2018-09-10T03:21:36.069Z,2.00
2018-09-10T03:24:04.351Z,1.47
2018-09-10T03:26:32.547Z,2.03
2018-09-10T03:29:00.748Z,2.10
2018-09-10T03:31:28.961Z,1.97
2018-09-10T03:33:57.135Z,1.70
2018-09-10T03:36:25.343Z,2.13
2018-09-10T03:38:53.532Z,2.00
2018-09-10T03:41:21.689Z,1.83
2018-09-10T03:43:49.927Z,2.43
2018-09-10T03:46:18.108Z,2.80
2018-09-10T03:48:46.318Z,3.00
2018-09-10T03:51:14.512Z,2.60
2018-09-10T03:53:42.682Z,2.70
2018-09-10T03:56:10.919Z,2.20
2018-09-10T03:58:39.093Z,1.87
2018-09-10T04:01:07.616Z,2.07
2018-09-10T04:03:35.824Z,2.17
2018-09-10T04:06:04.029Z,2.27
2018-09-10T04:08:32.254Z,1.77
2018-09-10T04:11:00.460Z,1.90
2018-09-10T04:13:28.610Z,2.00
2018-09-10T04:15:56.843Z,1.90
2018-09-10T04:18:25.556Z,1.80
2018-09-10T04:20:54.088Z,2.03
2018-09-10T04:23:22.294Z,2.07
2018-09-10T04:25:50.563Z,2.10
2018-09-10T04:28:18.735Z,1.83
2018-09-10T04:30:47.064Z,2.00
2018-09-10T04:33:15.306Z,2.30
2018-09-10T04:35:43.535Z,2.43
2018-09-10T04:38:11.710Z,2.23
2018-09-10T04:40:39.888Z,2.17
2018-09-10T04:43:08.094Z,2.43
2018-09-10T04:45:36.256Z,2.33
2018-09-10T04:48:04.493Z,2.90
2018-09-10T04:50:32.698Z,2.30
2018-09-10T04:53:00.977Z,2.77
2018-09-10T04:55:29.189Z,3.20
2018-09-10T04:57:57.475Z,2.50
2018-09-10T05:00:25.713Z,2.40
2018-09-10T05:02:54.028Z,4.33
2018-09-10T05:05:22.290Z,3.60
2018-09-10T05:07:50.505Z,3.00
2018-09-10T05:10:18.713Z,3.13
2018-09-10T05:12:46.927Z,3.43
2018-09-10T05:15:15.311Z,3.00
2018-09-10T05:17:44.538Z,3.07
2018-09-10T05:20:12.702Z,2.70
2018-09-10T05:22:40.975Z,2.60
2018-09-10T05:25:09.140Z,3.10
2018-09-10T05:27:37.321Z,2.90
2018-09-10T05:30:05.494Z,2.30
2018-09-10T05:32:33.767Z,2.37
2018-09-10T05:35:02.009Z,2.40
2018-09-10T05:37:30.225Z,3.23
2018-09-10T05:39:58.455Z,3.70
2018-09-10T05:42:26.706Z,2.73
2018-09-10T05:44:57.054Z,3.00
2018-09-10T05:47:25.357Z,3.20
2018-09-10T05:49:53.483Z,2.47
2018-09-10T05:52:21.692Z,2.70
2018-09-10T05:54:49.895Z,2.67
2018-09-10T05:57:18.133Z,2.77
2018-09-10T05:59:46.383Z,3.50
2018-09-10T06:02:14.590Z,3.30
2018-09-10T06:04:43.047Z,3.20
2018-09-10T06:07:11.447Z,3.07
2018-09-10T06:09:39.661Z,2.90
2018-09-10T06:12:07.865Z,2.70
2018-09-10T06:14:36.038Z,2.87
2018-09-10T06:17:04.258Z,2.60
2018-09-10T06:19:32.415Z,3.20
2018-09-10T06:22:00.593Z,2.93
2018-09-10T06:24:28.766Z,3.40
2018-09-10T06:26:56.983Z,3.10
2018-09-10T06:29:25.169Z,3.43
2018-09-10T06:31:53.413Z,3.10
2018-09-10T06:34:21.616Z,2.90
2018-09-10T06:36:49.820Z,3.07
2018-09-10T06:39:18.036Z,3.30
2018-09-10T06:41:46.221Z,3.40
2018-09-10T06:44:14.445Z,3.70
2018-09-10T06:46:42.634Z,3.37
2018-09-10T06:49:10.846Z,3.53
2018-09-10T06:51:39.078Z,2.87
2018-09-10T06:54:07.295Z,3.07
2018-09-10T06:56:35.440Z,3.10
2018-09-10T06:59:03.662Z,3.20
2018-09-10T07:01:31.857Z,3.40
2018-09-10T07:04:00.100Z,3.47
2018-09-10T07:06:28.324Z,3.30
2018-09-10T07:08:56.468Z,3.43
2018-09-10T07:11:24.659Z,3.70
2018-09-10T07:13:52.907Z,3.67
2018-09-10T07:16:21.787Z,3.63
2018-09-10T07:18:50.145Z,3.70
2018-09-10T07:21:18.261Z,3.77
2018-09-10T07:23:46.452Z,3.47
2018-09-10T07:26:14.635Z,3.30
2018-09-10T07:28:42.880Z,3.90
2018-09-10T07:31:11.062Z,3.60
2018-09-10T07:33:39.257Z,3.40
2018-09-10T07:36:07.440Z,3.53
2018-09-10T07:38:35.656Z,3.60
2018-09-10T07:41:03.864Z,3.20
2018-09-10T07:43:32.073Z,3.60
2018-09-10T07:46:00.222Z,3.45
2018-09-10T07:48:28.416Z,3.02
2018-09-10T07:50:56.591Z,3.05
2018-09-10T07:53:24.788Z,3.58
2018-09-10T07:55:53.013Z,3.80
2018-09-10T07:58:21.249Z,3.83
2018-09-10T08:00:49.519Z,3.75
2018-09-10T08:03:17.745Z,3.30
2018-09-10T08:05:45.971Z,3.70
2018-09-10T08:08:14.174Z,3.80
2018-09-10T08:10:42.374Z,3.83
2018-09-10T08:13:10.538Z,3.72
2018-09-10T08:15:38.755Z,4.33
2018-09-10T08:18:06.960Z,3.87
2018-09-10T08:20:35.165Z,4.42
2018-09-10T08:23:03.332Z,4.22
2018-09-10T08:25:31.551Z,4.92
2018-09-10T08:27:59.738Z,4.72
2018-09-10T08:30:27.990Z,5.12
2018-09-10T08:32:56.143Z,4.83
2018-09-10T08:35:24.359Z,5.35
2018-09-10T08:37:52.581Z,6.08
2018-09-10T08:40:20.781Z,5.85
2018-09-10T08:42:48.994Z,5.58
2018-09-10T08:45:17.320Z,5.20
2018-09-10T08:47:45.498Z,5.50
2018-09-10T08:50:13.743Z,6.15
2018-09-10T08:52:41.987Z,6.35
2018-09-10T08:55:10.247Z,5.85
2018-09-10T08:57:38.321Z,5.17
2018-09-10T09:00:06.541Z,6.08
2018-09-10T09:02:34.656Z,5.30
2018-09-10T09:05:02.887Z,6.00
2018-09-10T09:07:31.131Z,5.33
2018-09-10T09:09:59.301Z,5.42
2018-09-10T09:12:27.498Z,4.55
2018-09-10T09:14:55.698Z,4.65
2018-09-10T09:17:23.946Z,5.08
2018-09-10T09:19:52.129Z,5.20
2018-09-10T09:22:20.405Z,5.25
2018-09-10T09:24:48.631Z,6.20
2018-09-10T09:27:16.799Z,5.20
2018-09-10T09:29:45.022Z,5.47
2018-09-10T09:32:13.243Z,5.05
2018-09-10T09:34:46.780Z,5.90
2018-09-10T09:37:20.573Z,7.12
2018-09-10T09:39:54.343Z,5.00
2018-09-10T09:42:28.068Z,5.05
2018-09-10T09:45:01.516Z,4.58
2018-09-10T09:47:29.956Z,5.28
2018-09-10T09:49:58.201Z,4.95
2018-09-10T09:52:26.391Z,4.40
2018-09-10T09:54:54.626Z,4.97
2018-09-10T09:57:23.023Z,5.42
2018-09-10T09:59:51.245Z,5.17
2018-09-10T10:02:21.312Z,4.60
2018-09-10T10:04:49.542Z,3.65
2018-09-10T10:07:17.987Z,4.10
2018-09-10T10:09:46.165Z,3.72
2018-09-10T10:12:14.402Z,4.20
2018-09-10T10:14:42.495Z,3.90
2018-09-10T10:17:10.711Z,3.70
2018-09-10T10:19:38.909Z,3.83
2018-09-10T10:22:07.126Z,4.20
2018-09-10T10:24:35.298Z,3.90
2018-09-10T10:27:03.493Z,3.85
2018-09-10T10:29:31.740Z,3.95
2018-09-10T10:31:59.954Z,3.50
2018-09-10T10:34:28.144Z,4.65
2018-09-10T10:36:56.298Z,3.83
2018-09-10T10:39:24.480Z,3.83
2018-09-10T10:41:52.698Z,2.77
2018-09-10T10:44:20.898Z,3.95
2018-09-10T10:46:49.094Z,3.30
2018-09-10T10:49:17.273Z,3.80
2018-09-10T10:51:45.500Z,3.33
2018-09-10T10:54:13.743Z,3.33
2018-09-10T10:56:41.952Z,2.37
2018-09-10T10:59:10.224Z,3.12
2018-09-10T11:01:38.439Z,2.90
2018-09-10T11:04:06.770Z,3.08
2018-09-10T11:06:34.999Z,2.83
2018-09-10T11:09:03.352Z,3.05
2018-09-10T11:11:31.575Z,2.77
2018-09-10T11:13:59.795Z,2.35
2018-09-10T11:16:28.042Z,2.33
2018-09-10T11:18:56.241Z,2.33
2018-09-10T11:21:24.467Z,2.42
2018-09-10T11:23:52.909Z,2.72
2018-09-10T11:26:21.425Z,3.40
2018-09-10T11:28:49.715Z,3.33
2018-09-10T11:31:17.944Z,3.02
2018-09-10T11:33:46.352Z,3.02
2018-09-10T11:36:14.530Z,3.40
2018-09-10T11:38:42.745Z,3.22
2018-09-10T11:41:10.941Z,3.52
2018-09-10T11:43:39.287Z,3.30
2018-09-10T11:46:07.620Z,3.75
2018-09-10T11:48:35.825Z,3.35
2018-09-10T11:51:04.033Z,3.20
2018-09-10T11:53:32.519Z,3.83
2018-09-10T11:56:00.695Z,3.95
2018-09-10T11:58:28.945Z,4.03
2018-09-10T12:00:57.153Z,4.03
2018-09-10T12:03:25.379Z,3.83
2018-09-10T12:05:53.619Z,4.15
2018-09-10T12:08:21.831Z,4.53
2018-09-10T12:10:50.087Z,4.55
2018-09-10T12:13:18.244Z,4.60
2018-09-10T12:15:46.468Z,4.33
2018-09-10T12:18:14.714Z,3.80
2018-09-10T12:20:42.922Z,4.83
2018-09-10T12:23:11.164Z,3.47
2018-09-10T12:25:39.341Z,3.95
2018-09-10T12:28:07.500Z,4.12
2018-09-10T12:30:35.715Z,4.60
2018-09-10T12:33:03.901Z,4.15
2018-09-10T12:35:32.122Z,4.55
2018-09-10T12:38:00.282Z,3.92
2018-09-10T12:40:28.433Z,3.72
2018-09-10T12:42:56.667Z,3.62
2018-09-10T12:45:24.861Z,3.70
2018-09-10T12:47:53.078Z,3.58
2018-09-10T12:50:21.319Z,3.80
2018-09-10T12:52:49.493Z,3.37
2018-09-10T12:55:17.776Z,4.05
2018-09-10T12:57:45.992Z,4.65
2018-09-10T13:00:14.230Z,3.72
2018-09-10T13:02:42.583Z,4.22
2018-09-10T13:05:10.772Z,3.72
2018-09-10T13:07:38.984Z,3.70
2018-09-10T13:10:07.211Z,3.70
2018-09-10T13:12:35.399Z,4.12
2018-09-10T13:15:03.703Z,3.95
2018-09-10T13:17:31.975Z,3.95
2018-09-10T13:20:00.245Z,3.42
2018-09-10T13:22:28.430Z,3.70
2018-09-10T13:24:56.705Z,3.27
2018-09-10T13:27:24.987Z,3.62
2018-09-10T13:29:53.188Z,3.17
2018-09-10T13:32:21.335Z,3.65
2018-09-10T13:34:49.666Z,3.37
2018-09-10T13:37:17.834Z,3.72
2018-09-10T13:39:46.090Z,3.80
2018-09-10T13:42:14.352Z,3.55
2018-09-10T13:44:42.653Z,4.50
2018-09-10T13:47:10.938Z,4.37
2018-09-10T13:49:39.310Z,3.05
2018-09-10T13:52:07.674Z,2.67
2018-09-10T13:54:36.014Z,2.95
2018-09-10T13:57:04.321Z,3.10
2018-09-10T13:59:32.671Z,3.35
2018-09-10T14:02:01.086Z,6.90
2018-09-10T14:04:29.738Z,3.33
2018-09-10T14:06:58.003Z,3.33
2018-09-10T14:09:26.341Z,3.42
2018-09-10T14:11:54.624Z,3.27
2018-09-10T14:14:23.087Z,3.50
2018-09-10T14:16:51.613Z,3.85
2018-09-10T14:19:20.004Z,3.27
2018-09-10T14:21:48.379Z,3.50
2018-09-10T14:24:16.799Z,4.30
2018-09-10T14:26:45.335Z,3.72
2018-09-10T14:29:13.781Z,3.22
2018-09-10T14:31:42.065Z,3.75
2018-09-10T14:34:10.249Z,5.70
2018-09-10T14:36:38.433Z,3.67
2018-09-10T14:39:07.631Z,4.55
2018-09-10T14:41:35.874Z,4.05
2018-09-10T14:44:04.043Z,3.70
2018-09-10T14:46:32.278Z,3.80
2018-09-10T14:49:00.477Z,3.50
2018-09-10T14:51:28.670Z,4.50
2018-09-10T14:53:57.311Z,3.95
2018-09-10T14:56:25.580Z,3.90
2018-09-10T14:58:53.804Z,3.85
2018-09-10T15:01:22.018Z,3.60
2018-09-10T15:03:50.462Z,3.40
2018-09-10T15:06:18.711Z,3.33
2018-09-10T15:08:46.920Z,3.02
2018-09-10T15:11:15.145Z,3.77
2018-09-10T15:13:43.458Z,3.25
2018-09-10T15:16:11.736Z,3.85
2018-09-10T15:18:40.461Z,3.30
2018-09-10T15:21:09.177Z,3.37
2018-09-10T15:23:37.791Z,2.77
2018-09-10T15:26:06.365Z,3.60
2018-09-10T15:28:34.630Z,3.40
2018-09-10T15:31:03.115Z,3.10
2018-09-10T15:33:31.793Z,3.55
2018-09-10T15:36:01.003Z,3.10
2018-09-10T15:38:29.208Z,4.10
2018-09-10T15:40:57.499Z,3.45
2018-09-10T15:43:26.101Z,3.08
2018-09-10T15:45:54.471Z,3.02
2018-09-10T15:48:22.890Z,2.65
2018-09-10T15:50:51.377Z,2.75
2018-09-10T15:53:19.906Z,2.67
2018-09-10T15:55:48.355Z,2.45
2018-09-10T15:58:16.828Z,3.15
2018-09-10T16:00:45.239Z,4.15
2018-09-10T16:03:13.530Z,3.22
2018-09-10T16:05:41.957Z,3.12
2018-09-10T16:08:10.354Z,2.60
2018-09-10T16:10:38.780Z,2.87
2018-09-10T16:13:07.215Z,2.95
2018-09-10T16:15:35.579Z,3.08
2018-09-10T16:18:03.949Z,2.80
2018-09-10T16:20:32.261Z,2.80
2018-09-10T16:23:00.505Z,2.70
2018-09-10T16:25:28.944Z,4.47
2018-09-10T16:27:57.306Z,4.33
2018-09-10T16:30:25.536Z,3.10
2018-09-10T16:32:53.834Z,3.22
2018-09-10T16:35:22.079Z,2.65
2018-09-10T16:37:50.284Z,2.77
2018-09-10T16:40:18.762Z,2.87
2018-09-10T16:42:46.924Z,2.80
2018-09-10T16:45:15.127Z,2.55
2018-09-10T16:47:43.444Z,4.00
2018-09-10T16:50:11.715Z,3.77
2018-09-10T16:52:39.944Z,3.45
2018-09-10T16:55:08.152Z,3.00
2018-09-10T16:57:36.343Z,2.95
2018-09-10T17:00:04.679Z,2.83
2018-09-10T17:02:32.877Z,2.90
2018-09-10T17:05:01.136Z,2.92
2018-09-10T17:07:29.368Z,2.98
2018-09-10T17:09:57.537Z,3.12
2018-09-10T17:12:25.831Z,3.17
2018-09-10T17:14:54.113Z,3.05
2018-09-10T17:17:22.238Z,2.90
2018-09-10T17:19:50.468Z,2.77
2018-09-10T17:22:18.686Z,2.80
2018-09-10T17:24:46.920Z,2.45
2018-09-10T17:27:15.189Z,2.62
2018-09-10T17:29:43.394Z,2.50
2018-09-10T17:32:11.597Z,3.05
2018-09-10T17:34:39.823Z,2.75
2018-09-10T17:37:08.017Z,3.20
2018-09-10T17:39:36.263Z,2.80
2018-09-10T17:42:04.544Z,2.80
2018-09-10T17:44:32.848Z,3.00
2018-09-10T17:47:01.059Z,2.65
2018-09-10T17:49:29.237Z,2.77
2018-09-10T17:51:57.510Z,4.03
2018-09-10T17:54:25.769Z,3.33
2018-09-10T17:56:53.976Z,3.40
2018-09-10T17:59:22.157Z,3.05
2018-09-10T18:01:50.382Z,3.25
2018-09-10T18:04:18.624Z,3.52
2018-09-10T18:06:46.902Z,3.15
2018-09-10T18:09:15.098Z,2.90
2018-09-10T18:11:43.283Z,4.25
2018-09-10T18:14:11.547Z,3.72
2018-09-10T18:16:39.753Z,3.10
2018-09-10T18:19:07.935Z,3.17
2018-09-10T18:21:36.129Z,3.52
2018-09-10T18:24:04.874Z,3.95
2018-09-10T18:26:33.125Z,5.00
2018-09-10T18:29:01.372Z,3.25
2018-09-10T18:31:29.941Z,3.58
2018-09-10T18:33:59.495Z,3.17
2018-09-10T18:36:28.296Z,3.33
2018-09-10T18:38:56.497Z,3.40
2018-09-10T18:41:26.934Z,3.00
2018-09-10T18:43:55.255Z,3.35
2018-09-10T18:46:23.487Z,3.85
2018-09-10T18:48:51.927Z,3.58
2018-09-10T18:51:20.172Z,3.60
2018-09-10T18:53:48.474Z,3.52
2018-09-10T18:56:16.771Z,3.85
2018-09-10T18:58:45.205Z,3.50
2018-09-10T19:01:13.589Z,4.70
2018-09-10T19:03:41.655Z,4.45
2018-09-10T19:06:09.934Z,4.12
2018-09-10T19:08:38.118Z,4.00
2018-09-10T19:11:06.362Z,4.00
2018-09-10T19:13:34.555Z,4.87
2018-09-10T19:16:02.816Z,5.05
2018-09-10T19:18:36.358Z,5.80
2018-09-10T19:21:04.548Z,6.05
2018-09-10T19:23:33.105Z,7.97
2018-09-10T19:26:01.305Z,5.90
2018-09-10T19:28:29.559Z,5.42
2018-09-10T19:30:57.813Z,5.15
2018-09-10T19:33:26.008Z,4.92
2018-09-10T19:35:54.167Z,4.55
2018-09-10T19:38:22.418Z,5.65
2018-09-10T19:40:50.582Z,4.83
2018-09-10T19:43:18.869Z,4.97
2018-09-10T19:45:47.079Z,5.05
2018-09-10T19:48:15.341Z,5.28
2018-09-10T19:50:43.653Z,4.92
2018-09-10T19:53:11.888Z,5.10
2018-09-10T19:55:40.140Z,4.55
2018-09-10T19:58:08.474Z,4.70
2018-09-10T20:00:36.684Z,4.75
2018-09-10T20:03:04.954Z,4.40
2018-09-10T20:05:33.223Z,5.10
2018-09-10T20:08:01.558Z,4.37
2018-09-10T20:10:29.796Z,4.65
2018-09-10T20:12:58.029Z,5.08
2018-09-10T20:15:26.299Z,5.17
2018-09-10T20:17:54.471Z,5.20
2018-09-10T20:20:22.651Z,4.75
2018-09-10T20:22:50.888Z,5.05
2018-09-10T20:25:19.132Z,4.80
2018-09-10T20:27:48.209Z,4.60
2018-09-10T20:30:16.401Z,4.92
2018-09-10T20:32:44.660Z,4.70
2018-09-10T20:35:13.012Z,4.60
2018-09-10T20:37:41.185Z,4.77
2018-09-10T20:40:09.377Z,4.73
2018-09-10T20:42:37.592Z,4.77
2018-09-10T20:45:06.493Z,4.97
2018-09-10T20:47:34.725Z,4.23
2018-09-10T20:50:02.914Z,5.07
2018-09-10T20:52:31.148Z,5.77
2018-09-10T20:54:59.442Z,5.53
2018-09-10T20:57:27.704Z,5.53
2018-09-10T20:59:55.895Z,5.73
2018-09-10T21:02:24.104Z,4.67
2018-09-10T21:04:52.332Z,5.70
2018-09-10T21:07:20.513Z,5.30
2018-09-10T21:09:48.728Z,6.00
2018-09-10T21:12:16.948Z,5.63
2018-09-10T21:14:45.124Z,5.60
2018-09-10T21:17:13.328Z,5.73
2018-09-10T21:19:41.516Z,5.50
2018-09-10T21:22:09.735Z,6.50
2018-09-10T21:24:37.892Z,5.10
2018-09-10T21:27:06.110Z,5.43
2018-09-10T21:29:34.254Z,5.57
2018-09-10T21:32:02.452Z,5.00
2018-09-10T21:34:30.692Z,5.53
2018-09-10T21:36:58.905Z,4.73
2018-09-10T21:39:27.050Z,5.27
2018-09-10T21:41:55.244Z,4.70
2018-09-10T21:44:23.472Z,5.67
2018-09-10T21:46:51.662Z,5.50
2018-09-10T21:49:19.852Z,5.17
2018-09-10T21:51:48.089Z,5.40
2018-09-10T21:54:16.266Z,5.57
2018-09-10T21:56:44.467Z,5.97
2018-09-10T21:59:12.691Z,6.40
2018-09-10T22:01:40.877Z,5.13
2018-09-10T22:04:09.042Z,5.40
2018-09-10T22:06:37.295Z,5.57
2018-09-10T22:09:06.505Z,5.23
2018-09-10T22:11:39.128Z,5.50
2018-09-10T22:14:07.824Z,4.90
2018-09-10T22:16:36.052Z,5.37
2018-09-10T22:19:04.250Z,5.23
2018-09-10T22:21:33.297Z,5.73
2018-09-10T22:24:01.479Z,4.83
2018-09-10T22:26:29.695Z,4.87
2018-09-10T22:28:57.916Z,4.90
2018-09-10T22:31:26.129Z,6.17
2018-09-10T22:33:54.336Z,6.77
2018-09-10T22:36:22.543Z,6.80
2018-09-10T22:38:50.779Z,5.77
2018-09-10T22:41:18.998Z,5.67
2018-09-10T22:43:47.279Z,5.90
2018-09-10T22:46:15.447Z,5.73
2018-09-10T22:48:43.651Z,5.50
2018-09-10T22:51:11.822Z,5.00
2018-09-10T22:53:40.057Z,5.70
2018-09-10T22:56:08.228Z,5.97
2018-09-10T22:58:36.387Z,6.53
2018-09-10T23:01:04.646Z,5.63
2018-09-10T23:03:32.879Z,5.90
2018-09-10T23:06:01.449Z,5.60
2018-09-10T23:08:29.677Z,6.37
2018-09-10T23:10:57.800Z,6.13
2018-09-10T23:13:25.993Z,7.10
2018-09-10T23:15:54.314Z,5.67
2018-09-10T23:18:22.532Z,5.73
2018-09-10T23:20:50.756Z,5.23
2018-09-10T23:23:18.954Z,4.97
2018-09-10T23:25:47.111Z,4.97
2018-09-10T23:28:15.328Z,4.60
2018-09-10T23:30:43.519Z,4.23
2018-09-10T23:33:11.663Z,3.57
2018-09-10T23:35:39.841Z,4.10
2018-09-10T23:38:08.043Z,3.30
2018-09-10T23:40:36.201Z,4.00
2018-09-10T23:43:04.400Z,4.10
2018-09-10T23:45:32.651Z,3.97
2018-09-10T23:48:00.840Z,3.43
2018-09-10T23:50:29.041Z,3.93
2018-09-10T23:52:57.278Z,4.10
2018-09-10T23:55:25.476Z,3.93
2018-09-10T23:57:53.647Z,3.90
